Time;durP1;ratioP1;P1;durP2;ratioP2;P2;SDS_P1;SDS_P2;PMS_P1;PMS_P2;Temp;Humidity;BMP_temperature;BMP_pressure;BME280_temperature;BME280_humidity;BME280_pressure;Samples;Min_cycle;Max_cycle;Signal;HPM_P1;HPM_P2
2023/09/01 00:00:49;;;;;;;5.50;2.75;;;;;;;;;;5092227;28;20062;-78
2023/09/01 00:03:16;;;;;;;5.97;2.90;;;;;;;;;;5090231;28;20040;-78
2023/09/01 00:05:42;;;;;;;7.30;2.80;;;;;;;;;;5089048;28;20055;-77
2023/09/01 00:08:08;;;;;;;7.72;2.95;;;;;;;;;;5089898;28;20044;-78
2023/09/01 00:10:39;;;;;;;6.13;2.90;;;;;;;;;;5092141;28;20051;-77
2023/09/01 00:13:05;;;;;;;7.13;3.20;;;;;;;;;;5091894;28;20090;-78
2023/09/01 00:15:31;;;;;;;5.10;2.90;;;;;;;;;;5091517;28;20488;-77
2023/09/01 00:17:58;;;;;;;6.25;3.30;;;;;;;;;;5093867;28;20093;-78
2023/09/01 00:20:24;;;;;;;7.18;3.10;;;;;;;;;;5095616;28;20443;-77
2023/09/01 00:22:50;;;;;;;7.55;2.88;;;;;;;;;;5095296;28;20040;-77
2023/09/01 00:25:16;;;;;;;6.53;2.70;;;;;;;;;;5095489;28;20044;-77
2023/09/01 00:27:42;;;;;;;8.27;3.08;;;;;;;;;;5086673;28;20462;-77
2023/09/01 00:30:09;;;;;;;5.78;2.80;;;;;;;;;;5092645;28;20430;-77
2023/09/01 00:32:35;;;;;;;6.88;2.72;;;;;;;;;;5094454;28;20407;-78
2023/09/01 00:35:04;;;;;;;7.28;3.13;;;;;;;;;;5095088;28;20040;-78
2023/09/01 00:37:31;;;;;;;7.63;3.25;;;;;;;;;;5093863;28;20044;-77
2023/09/01 00:39:57;;;;;;;6.47;2.90;;;;;;;;;;5095314;28;20047;-78
2023/09/01 00:42:23;;;;;;;8.20;3.08;;;;;;;;;;5094106;28;20127;-78
2023/09/01 00:44:49;;;;;;;6.05;3.20;;;;;;;;;;5077500;28;20079;-78
2023/09/01 00:47:16;;;;;;;7.20;3.20;;;;;;;;;;5094047;28;20093;-77
2023/09/01 00:49:42;;;;;;;7.05;3.33;;;;;;;;;;5093882;28;20446;-77
2023/09/01 00:52:08;;;;;;;5.15;3.10;;;;;;;;;;5094184;28;20531;-77
2023/09/01 00:54:34;;;;;;;6.93;3.08;;;;;;;;;;5093713;28;20079;-78
2023/09/01 00:57:01;;;;;;;8.85;3.50;;;;;;;;;;5094982;28;20047;-78
2023/09/01 00:59:27;;;;;;;6.78;3.42;;;;;;;;;;5094933;28;20419;-78
2023/09/01 01:01:54;;;;;;;7.30;3.25;;;;;;;;;;5093635;28;20044;-78
2023/09/01 01:04:22;;;;;;;7.68;3.38;;;;;;;;;;5093549;28;20044;-77
2023/09/01 01:07:08;;;;;;;5.25;3.22;;;;;;;;;;5094926;28;20051;-78
2023/09/01 01:09:34;;;;;;;8.50;3.38;;;;;;;;;;5093354;28;20056;-78
2023/09/01 01:12:17;;;;;;;8.35;3.30;;;;;;;;;;5093355;28;20055;-78
2023/09/01 01:14:46;;;;;;;7.22;3.10;;;;;;;;;;5092604;28;20044;-78
2023/09/01 01:17:13;;;;;;;8.77;3.50;;;;;;;;;;5087211;28;20075;-79
2023/09/01 01:19:50;;;;;;;6.57;3.42;;;;;;;;;;5092946;28;20055;-78
2023/09/01 01:22:20;;;;;;;6.13;3.17;;;;;;;;;;5094190;28;20044;-78
2023/09/01 01:24:46;;;;;;;6.53;3.60;;;;;;;;;;5092821;28;20036;-78
2023/09/01 01:27:16;;;;;;;6.00;3.33;;;;;;;;;;5086111;28;20143;-78
2023/09/01 01:29:42;;;;;;;5.72;3.30;;;;;;;;;;5093390;28;20051;-78
2023/09/01 01:32:09;;;;;;;5.68;3.13;;;;;;;;;;5106420;28;20131;-76
2023/09/01 01:34:43;;;;;;;7.20;3.45;;;;;;;;;;5088137;28;20040;-76
2023/09/01 01:37:13;;;;;;;5.80;3.25;;;;;;;;;;5089961;28;20032;-75
2023/09/01 01:39:40;;;;;;;5.38;3.38;;;;;;;;;;5092610;28;20131;-77
2023/09/01 01:42:08;;;;;;;6.53;3.42;;;;;;;;;;5093262;28;20047;-76
2023/09/01 01:44:35;;;;;;;6.43;3.33;;;;;;;;;;5093220;28;20040;-77
2023/09/01 01:47:03;;;;;;;7.50;3.67;;;;;;;;;;5093655;28;20036;-77
2023/09/01 01:49:29;;;;;;;7.85;3.55;;;;;;;;;;5094063;28;20071;-77
2023/09/01 01:51:55;;;;;;;6.40;4.00;;;;;;;;;;5092782;28;20121;-77
2023/09/01 01:54:21;;;;;;;7.47;3.75;;;;;;;;;;5092661;28;20430;-77
2023/09/01 01:56:47;;;;;;;6.78;3.80;;;;;;;;;;5091731;28;20498;-77
2023/09/01 01:59:13;;;;;;;7.35;3.58;;;;;;;;;;5093562;28;20052;-77
2023/09/01 02:01:39;;;;;;;7.82;3.90;;;;;;;;;;5092226;28;20040;-77
2023/09/01 02:04:05;;;;;;;7.57;3.47;;;;;;;;;;5092379;28;20055;-77
2023/09/01 02:06:31;;;;;;;8.60;3.45;;;;;;;;;;5075744;28;20040;-78
2023/09/01 02:08:57;;;;;;;7.75;3.78;;;;;;;;;;5090416;28;20056;-78
2023/09/01 02:11:23;;;;;;;7.78;3.80;;;;;;;;;;5091311;28;20048;-77
2023/09/01 02:13:49;;;;;;;5.55;3.60;;;;;;;;;;5092726;28;20048;-77
2023/09/01 02:16:15;;;;;;;6.53;3.22;;;;;;;;;;5093228;28;20070;-77
2023/09/01 02:18:43;;;;;;;7.75;3.70;;;;;;;;;;5091425;28;20032;-77
2023/09/01 02:21:09;;;;;;;8.77;3.63;;;;;;;;;;5092242;28;20040;-77
2023/09/01 02:23:35;;;;;;;7.43;3.85;;;;;;;;;;5091607;28;20455;-77
2023/09/01 02:26:01;;;;;;;7.40;3.85;;;;;;;;;;5090253;28;20044;-77
2023/09/01 02:28:30;;;;;;;5.93;3.65;;;;;;;;;;5090638;28;20051;-78
2023/09/01 02:30:56;;;;;;;9.05;4.03;;;;;;;;;;5093198;28;20120;-78
2023/09/01 02:33:22;;;;;;;8.45;4.10;;;;;;;;;;5093001;28;20040;-78
2023/09/01 02:35:49;;;;;;;6.20;3.72;;;;;;;;;;5093025;28;20040;-78
2023/09/01 02:38:15;;;;;;;6.00;3.78;;;;;;;;;;5093142;28;20040;-78
2023/09/01 02:40:41;;;;;;;6.60;3.78;;;;;;;;;;5095293;28;20044;-77
2023/09/01 02:43:07;;;;;;;7.80;4.22;;;;;;;;;;5094266;28;20040;-77
2023/09/01 02:45:33;;;;;;;8.35;3.85;;;;;;;;;;5093198;28;20044;-77
2023/09/01 02:47:59;;;;;;;8.68;3.97;;;;;;;;;;5091762;28;20054;-77
2023/09/01 02:50:25;;;;;;;6.55;3.50;;;;;;;;;;5092667;28;20441;-77
2023/09/01 02:52:52;;;;;;;8.15;3.80;;;;;;;;;;5091448;28;20079;-77
2023/09/01 02:55:18;;;;;;;8.32;3.83;;;;;;;;;;5091716;28;20408;-77
2023/09/01 02:57:44;;;;;;;6.70;3.58;;;;;;;;;;5092981;28;20058;-77
2023/09/01 03:00:21;;;;;;;6.55;3.55;;;;;;;;;;5093485;28;20040;-77
2023/09/01 03:02:47;;;;;;;8.45;3.70;;;;;;;;;;5091573;28;20083;-77
2023/09/01 03:05:14;;;;;;;7.75;3.60;;;;;;;;;;5091207;28;20101;-77
2023/09/01 03:07:40;;;;;;;6.70;3.47;;;;;;;;;;5091651;28;20050;-77
2023/09/01 03:10:10;;;;;;;5.95;3.40;;;;;;;;;;5092357;28;20443;-76
2023/09/01 03:12:39;;;;;;;7.75;3.85;;;;;;;;;;5092521;28;20051;-77
2023/09/01 03:15:06;;;;;;;11.23;4.15;;;;;;;;;;5092249;28;20075;-77
2023/09/01 03:17:32;;;;;;;8.63;4.00;;;;;;;;;;5091109;28;20100;-76
2023/09/01 03:19:58;;;;;;;6.95;3.80;;;;;;;;;;5091215;28;20047;-77
2023/09/01 03:22:25;;;;;;;8.57;4.00;;;;;;;;;;5090804;28;20047;-76
2023/09/01 03:24:54;;;;;;;7.05;3.92;;;;;;;;;;5089037;28;20423;-77
2023/09/01 03:27:21;;;;;;;8.02;3.92;;;;;;;;;;5092110;28;20051;-78
2023/09/01 03:29:49;;;;;;;7.20;3.80;;;;;;;;;;5092105;28;20040;-77
2023/09/01 03:32:15;;;;;;;7.30;4.00;;;;;;;;;;5087848;28;20478;-77
2023/09/01 03:34:41;;;;;;;8.45;3.95;;;;;;;;;;5092302;28;20102;-77
2023/09/01 03:37:11;;;;;;;8.55;3.85;;;;;;;;;;5074421;28;20362;-77
2023/09/01 03:39:38;;;;;;;9.48;3.88;;;;;;;;;;5090946;28;20051;-77
2023/09/01 03:42:04;;;;;;;10.52;3.95;;;;;;;;;;5091875;28;20052;-78
2023/09/01 03:44:30;;;;;;;9.07;4.10;;;;;;;;;;5089991;28;20044;-78
2023/09/01 03:46:58;;;;;;;6.18;3.70;;;;;;;;;;5091746;28;20454;-78
2023/09/01 03:49:26;;;;;;;10.68;3.80;;;;;;;;;;5070816;28;20090;-77
2023/09/01 03:51:52;;;;;;;8.65;3.70;;;;;;;;;;5073553;28;20048;-77
2023/09/01 03:54:18;;;;;;;9.20;3.88;;;;;;;;;;5075607;28;20053;-77
2023/09/01 03:56:44;;;;;;;8.55;3.60;;;;;;;;;;5074606;28;20041;-78
2023/09/01 03:59:10;;;;;;;6.45;3.78;;;;;;;;;;5074626;28;20101;-77
2023/09/01 04:01:36;;;;;;;10.20;3.83;;;;;;;;;;5096375;28;20040;-77
2023/09/01 04:04:05;;;;;;;6.40;3.72;;;;;;;;;;5077622;28;20135;-78
2023/09/01 04:06:31;;;;;;;7.13;3.30;;;;;;;;;;5095104;28;20047;-77
2023/09/01 04:08:57;;;;;;;7.57;3.40;;;;;;;;;;5094149;28;20052;-77
2023/09/01 04:11:23;;;;;;;7.55;3.65;;;;;;;;;;5096020;28;20404;-77
2023/09/01 04:13:49;;;;;;;8.13;3.78;;;;;;;;;;5093543;28;20079;-78
2023/09/01 04:16:15;;;;;;;8.60;3.55;;;;;;;;;;5095903;28;20044;-78
2023/09/01 04:18:41;;;;;;;8.02;3.65;;;;;;;;;;5095102;28;20050;-78
2023/09/01 04:21:07;;;;;;;7.53;3.58;;;;;;;;;;5095427;28;20131;-78
2023/09/01 04:23:33;;;;;;;8.25;3.92;;;;;;;;;;5093785;28;20071;-78
2023/09/01 04:26:00;;;;;;;6.70;3.60;;;;;;;;;;5095069;28;20055;-78
2023/09/01 04:28:27;;;;;;;6.75;3.70;;;;;;;;;;5094493;28;20456;-78
2023/09/01 04:30:53;;;;;;;8.85;3.35;;;;;;;;;;5093564;28;20079;-77
2023/09/01 04:33:19;;;;;;;6.60;3.83;;;;;;;;;;5094109;28;20431;-78
2023/09/01 04:35:45;;;;;;;9.45;4.10;;;;;;;;;;5093677;28;20048;-78
2023/09/01 04:38:11;;;;;;;6.95;3.67;;;;;;;;;;5092443;28;20437;-78
2023/09/01 04:40:37;;;;;;;7.80;3.90;;;;;;;;;;5091618;28;20048;-78
2023/09/01 04:43:03;;;;;;;6.82;3.70;;;;;;;;;;5084002;28;20041;-78
2023/09/01 04:45:29;;;;;;;7.72;3.75;;;;;;;;;;5093022;28;20040;-78
2023/09/01 04:47:55;;;;;;;7.38;3.90;;;;;;;;;;5060761;28;20048;-78
2023/09/01 04:50:21;;;;;;;9.18;3.72;;;;;;;;;;5093834;28;20055;-78
2023/09/01 04:52:48;;;;;;;7.40;4.05;;;;;;;;;;5092654;28;20358;-78
2023/09/01 04:55:14;;;;;;;6.00;3.92;;;;;;;;;;5076600;28;20044;-78
2023/09/01 04:57:40;;;;;;;9.52;4.00;;;;;;;;;;5094454;28;20044;-78
2023/09/01 05:00:15;;;;;;;9.52;3.90;;;;;;;;;;5094113;28;20044;-78
2023/09/01 05:02:41;;;;;;;7.40;4.03;;;;;;;;;;5094749;28;20395;-77
2023/09/01 05:05:08;;;;;;;6.93;4.20;;;;;;;;;;5093539;28;20043;-78
2023/09/01 05:07:34;;;;;;;8.57;4.35;;;;;;;;;;5093128;28;20051;-79
2023/09/01 05:10:00;;;;;;;7.50;3.97;;;;;;;;;;5090640;28;20048;-78
2023/09/01 05:12:26;;;;;;;6.80;4.18;;;;;;;;;;5093493;28;20079;-77
2023/09/01 05:14:52;;;;;;;7.95;4.20;;;;;;;;;;5075985;28;20492;-77
2023/09/01 05:17:18;;;;;;;10.27;3.95;;;;;;;;;;5093735;28;20403;-78
2023/09/01 05:19:44;;;;;;;7.90;3.53;;;;;;;;;;5092091;28;20402;-78
2023/09/01 05:22:10;;;;;;;8.55;4.28;;;;;;;;;;5093502;28;20143;-78
2023/09/01 05:24:36;;;;;;;6.13;3.70;;;;;;;;;;5075321;28;20119;-79
2023/09/01 05:27:03;;;;;;;7.95;3.88;;;;;;;;;;5093353;28;20039;-79
2023/09/01 05:29:30;;;;;;;7.32;4.13;;;;;;;;;;5094431;28;20089;-78
2023/09/01 05:31:56;;;;;;;10.45;3.90;;;;;;;;;;5092999;28;20048;-79
2023/09/01 05:34:22;;;;;;;9.13;4.22;;;;;;;;;;5089309;28;20052;-79
2023/09/01 05:36:48;;;;;;;9.63;4.07;;;;;;;;;;5087598;28;20370;-79
2023/09/01 05:39:14;;;;;;;8.00;4.05;;;;;;;;;;5094445;28;20051;-79
2023/09/01 05:41:41;;;;;;;7.30;4.10;;;;;;;;;;5092425;28;20081;-79
2023/09/01 05:44:07;;;;;;;9.07;4.10;;;;;;;;;;5075268;28;20063;-79
2023/09/01 05:46:33;;;;;;;6.85;4.07;;;;;;;;;;5094059;28;20091;-79
2023/09/01 05:48:59;;;;;;;8.77;3.90;;;;;;;;;;5077945;28;20102;-79
2023/09/01 05:51:25;;;;;;;11.05;3.90;;;;;;;;;;5087937;28;20044;-79
2023/09/01 05:53:51;;;;;;;8.23;4.00;;;;;;;;;;5092248;28;20083;-79
2023/09/01 05:56:17;;;;;;;7.72;3.70;;;;;;;;;;5095138;28;20511;-76
2023/09/01 05:58:43;;;;;;;9.23;3.70;;;;;;;;;;5098984;28;20055;-77
2023/09/01 06:01:09;;;;;;;7.28;3.50;;;;;;;;;;5095712;28;20044;-79
2023/09/01 06:03:35;;;;;;;8.82;3.70;;;;;;;;;;5094072;28;20047;-79
2023/09/01 06:06:01;;;;;;;6.40;3.50;;;;;;;;;;5092092;28;20056;-78
2023/09/01 06:08:27;;;;;;;7.75;4.00;;;;;;;;;;5091738;28;20048;-79
2023/09/01 06:11:02;;;;;;;8.10;3.45;;;;;;;;;;5092339;28;20109;-79
2023/09/01 06:13:28;;;;;;;12.43;3.73;;;;;;;;;;5091130;28;20109;-79
2023/09/01 06:15:54;;;;;;;8.05;3.63;;;;;;;;;;5093317;28;20298;-78
2023/09/01 06:18:20;;;;;;;9.27;3.40;;;;;;;;;;5091670;28;20123;-80
2023/09/01 06:20:46;;;;;;;9.77;4.15;;;;;;;;;;5093193;28;20074;-78
2023/09/01 06:23:13;;;;;;;12.93;4.40;;;;;;;;;;5093056;28;20089;-78
2023/09/01 06:25:39;;;;;;;10.45;4.45;;;;;;;;;;5093422;28;20051;-79
2023/09/01 06:28:05;;;;;;;12.65;4.15;;;;;;;;;;5092655;28;20101;-79
2023/09/01 06:30:31;;;;;;;9.80;3.92;;;;;;;;;;5093578;28;20341;-79
2023/09/01 06:32:57;;;;;;;11.65;3.90;;;;;;;;;;5093075;28;20093;-79
2023/09/01 06:35:23;;;;;;;11.93;3.60;;;;;;;;;;5093468;28;20075;-79
2023/09/01 06:37:49;;;;;;;6.15;3.00;;;;;;;;;;5093766;28;20047;-77
2023/09/01 06:40:15;;;;;;;9.38;2.97;;;;;;;;;;5092265;28;20057;-79
2023/09/01 06:42:41;;;;;;;9.75;3.22;;;;;;;;;;5091827;28;20036;-80
2023/09/01 06:45:07;;;;;;;12.10;4.10;;;;;;;;;;5074671;28;20044;-79
2023/09/01 06:47:33;;;;;;;11.25;4.80;;;;;;;;;;5091294;28;20055;-79
2023/09/01 06:49:59;;;;;;;8.82;4.53;;;;;;;;;;5091318;28;20044;-78
2023/09/01 06:52:25;;;;;;;8.52;4.18;;;;;;;;;;5093315;28;20036;-78
2023/09/01 06:54:51;;;;;;;9.70;4.15;;;;;;;;;;5091430;28;20419;-78
2023/09/01 06:57:17;;;;;;;8.48;4.18;;;;;;;;;;5091307;28;20041;-79
2023/09/01 06:59:45;;;;;;;10.50;3.40;;;;;;;;;;5092397;28;20558;-78
2023/09/01 07:02:11;;;;;;;8.70;3.63;;;;;;;;;;5092664;28;20396;-78
2023/09/01 07:04:37;;;;;;;7.82;3.33;;;;;;;;;;5089767;28;20044;-78
2023/09/01 07:07:03;;;;;;;7.53;3.17;;;;;;;;;;5092712;28;20044;-78
2023/09/01 07:09:29;;;;;;;9.10;3.10;;;;;;;;;;5091246;28;20056;-77
2023/09/01 07:11:58;;;;;;;8.05;2.90;;;;;;;;;;5090302;28;20188;-78
2023/09/01 07:14:24;;;;;;;6.15;2.85;;;;;;;;;;5090327;28;20039;-78
2023/09/01 07:16:50;;;;;;;4.97;2.40;;;;;;;;;;5074534;28;20043;-78
2023/09/01 07:19:16;;;;;;;4.97;2.85;;;;;;;;;;5092274;28;20040;-79
2023/09/01 07:21:42;;;;;;;6.35;3.03;;;;;;;;;;5074528;28;20223;-78
2023/09/01 07:24:08;;;;;;;8.52;2.70;;;;;;;;;;5091207;28;20236;-78
2023/09/01 07:26:34;;;;;;;9.05;2.95;;;;;;;;;;5075322;28;20523;-78
2023/09/01 07:29:00;;;;;;;8.20;3.65;;;;;;;;;;5074923;28;20049;-79
2023/09/01 07:31:26;;;;;;;8.65;3.17;;;;;;;;;;5086605;28;20044;-79
2023/09/01 07:33:54;;;;;;;9.95;3.22;;;;;;;;;;5093861;28;20126;-79
2023/09/01 07:36:21;;;;;;;10.35;3.22;;;;;;;;;;5093841;28;20445;-79
2023/09/01 07:38:47;;;;;;;7.20;2.92;;;;;;;;;;5095802;28;20098;-78
2023/09/01 07:41:14;;;;;;;7.70;2.80;;;;;;;;;;5096143;28;20050;-79
2023/09/01 07:43:40;;;;;;;7.78;2.42;;;;;;;;;;5094336;28;20132;-79
2023/09/01 07:46:06;;;;;;;7.03;2.33;;;;;;;;;;5095269;28;20362;-79
2023/09/01 07:48:32;;;;;;;5.13;2.35;;;;;;;;;;5096438;28;20040;-80
2023/09/01 07:50:58;;;;;;;4.85;2.33;;;;;;;;;;5095522;28;20043;-78
2023/09/01 07:53:24;;;;;;;6.15;2.47;;;;;;;;;;5095772;28;20040;-80
2023/09/01 07:55:50;;;;;;;5.18;2.20;;;;;;;;;;5095164;28;20393;-79
2023/09/01 07:58:16;;;;;;;9.00;2.83;;;;;;;;;;5093244;28;20035;-80
2023/09/01 08:00:42;;;;;;;5.45;2.20;;;;;;;;;;5093282;28;20055;-79
2023/09/01 08:03:10;;;;;;;5.80;2.50;;;;;;;;;;5093827;28;20488;-79
2023/09/01 08:05:40;;;;;;;7.63;2.30;;;;;;;;;;5093586;28;20052;-80
2023/09/01 08:08:06;;;;;;;7.32;2.33;;;;;;;;;;5095608;28;20519;-79
2023/09/01 08:10:33;;;;;;;6.00;2.15;;;;;;;;;;5093941;28;20059;-79
2023/09/01 08:12:59;;;;;;;5.45;2.30;;;;;;;;;;5095565;28;20523;-79
2023/09/01 08:15:26;;;;;;;6.63;2.30;;;;;;;;;;5093938;28;20055;-80
2023/09/01 08:17:53;;;;;;;7.03;2.22;;;;;;;;;;5096015;28;20047;-78
2023/09/01 08:20:19;;;;;;;7.43;2.22;;;;;;;;;;5095465;28;20045;-80
2023/09/01 08:22:45;;;;;;;8.18;1.77;;;;;;;;;;5094014;28;20055;-79
2023/09/01 08:25:12;;;;;;;8.27;1.90;;;;;;;;;;5095347;28;20508;-80
2023/09/01 08:27:38;;;;;;;6.03;1.75;;;;;;;;;;5084002;28;20489;-79
2023/09/01 08:30:04;;;;;;;4.53;1.70;;;;;;;;;;5094129;28;20101;-78
2023/09/01 08:32:30;;;;;;;4.72;1.75;;;;;;;;;;5094777;28;20121;-76
2023/09/01 08:34:56;;;;;;;6.88;1.80;;;;;;;;;;5094385;28;20079;-76
2023/09/01 08:37:22;;;;;;;8.38;2.25;;;;;;;;;;5084634;28;20063;-76
2023/09/01 08:39:51;;;;;;;5.85;2.10;;;;;;;;;;5094952;28;20048;-78
2023/09/01 08:42:18;;;;;;;4.75;1.80;;;;;;;;;;5093701;28;20075;-77
2023/09/01 08:44:45;;;;;;;3.92;1.80;;;;;;;;;;5093901;28;20512;-77
2023/09/01 08:47:11;;;;;;;5.20;1.75;;;;;;;;;;5094214;28;20032;-77
2023/09/01 08:49:38;;;;;;;8.40;1.85;;;;;;;;;;5095062;28;20071;-77
2023/09/01 08:52:04;;;;;;;4.70;1.90;;;;;;;;;;5093658;28;20408;-77
2023/09/01 08:54:33;;;;;;;5.82;1.95;;;;;;;;;;5075682;28;20161;-77
2023/09/01 08:56:59;;;;;;;5.25;1.60;;;;;;;;;;5092541;28;20104;-76
2023/09/01 08:59:28;;;;;;;4.68;1.60;;;;;;;;;;5093661;28;20519;-76
2023/09/01 09:01:54;;;;;;;5.90;1.83;;;;;;;;;;5094177;28;20051;-77
2023/09/01 09:04:20;;;;;;;3.90;1.83;;;;;;;;;;5093875;28;20071;-77
2023/09/01 09:06:46;;;;;;;4.88;1.80;;;;;;;;;;5093053;28;20039;-77
2023/09/01 09:09:14;;;;;;;4.78;1.83;;;;;;;;;;5094818;28;20058;-78
2023/09/01 09:11:59;;;;;;;3.63;1.48;;;;;;;;;;5094950;28;20174;-77
2023/09/01 09:14:27;;;;;;;6.07;1.77;;;;;;;;;;5098225;28;20055;-76
2023/09/01 09:16:56;;;;;;;4.32;1.70;;;;;;;;;;5101028;28;20099;-76
2023/09/01 09:19:23;;;;;;;5.28;1.90;;;;;;;;;;5090444;28;20140;-78
2023/09/01 09:21:49;;;;;;;5.18;1.88;;;;;;;;;;5094012;28;20052;-76
2023/09/01 09:24:33;;;;;;;4.93;1.65;;;;;;;;;;5092932;28;20044;-77
2023/09/01 09:26:59;;;;;;;5.80;1.80;;;;;;;;;;5093320;28;20040;-77
2023/09/01 09:29:25;;;;;;;4.78;2.08;;;;;;;;;;5094469;28;20054;-77
2023/09/01 09:31:51;;;;;;;4.35;1.60;;;;;;;;;;5092412;28;20127;-77
2023/09/01 09:34:18;;;;;;;3.28;1.67;;;;;;;;;;5092734;28;20445;-77
2023/09/01 09:36:49;;;;;;;2.85;1.50;;;;;;;;;;5093102;28;20044;-77
2023/09/01 09:39:30;;;;;;;5.20;1.67;;;;;;;;;;5075955;28;20090;-78
2023/09/01 09:41:59;;;;;;;7.53;2.08;;;;;;;;;;5077750;28;20056;-78
2023/09/01 09:44:33;;;;;;;4.40;1.58;;;;;;;;;;5073454;28;20094;-77
2023/09/01 09:47:13;;;;;;;7.70;1.80;;;;;;;;;;5072856;28;20049;-77
2023/09/01 09:49:39;;;;;;;5.47;1.80;;;;;;;;;;5072857;28;20052;-76
2023/09/01 09:52:08;;;;;;;3.35;1.67;;;;;;;;;;5073818;28;20040;-77
2023/09/01 09:54:37;;;;;;;7.05;2.10;;;;;;;;;;5074210;28;20040;-77
2023/09/01 09:57:05;;;;;;;3.97;1.85;;;;;;;;;;5091347;28;20499;-76
2023/09/01 09:59:33;;;;;;;4.10;1.98;;;;;;;;;;5112339;28;20466;-78
2023/09/01 10:02:03;;;;;;;6.18;2.30;;;;;;;;;;5114249;28;20108;-77
2023/09/01 10:04:29;;;;;;;6.65;2.22;;;;;;;;;;5087492;28;20068;-77
2023/09/01 10:06:56;;;;;;;4.00;1.90;;;;;;;;;;5072184;28;20425;-77
2023/09/01 10:09:23;;;;;;;5.57;2.00;;;;;;;;;;5073186;28;20060;-77
2023/09/01 10:11:49;;;;;;;5.88;2.25;;;;;;;;;;5070394;28;20044;-77
2023/09/01 10:14:16;;;;;;;4.05;2.00;;;;;;;;;;5072548;28;20044;-77
2023/09/01 10:16:43;;;;;;;4.82;1.88;;;;;;;;;;5079703;28;20040;-77
2023/09/01 10:19:12;;;;;;;4.15;1.75;;;;;;;;;;5093293;28;20052;-77
2023/09/01 10:21:40;;;;;;;5.13;2.03;;;;;;;;;;5093700;28;20044;-77
2023/09/01 10:24:12;;;;;;;5.18;1.70;;;;;;;;;;5092921;28;20047;-77
2023/09/01 10:26:38;;;;;;;5.18;1.95;;;;;;;;;;5086361;28;20105;-78
2023/09/01 10:29:05;;;;;;;4.60;2.15;;;;;;;;;;5051874;28;20055;-78
2023/09/01 10:31:33;;;;;;;5.93;3.33;;;;;;;;;;5070240;28;20099;-79
2023/09/01 10:34:07;;;;;;;6.80;2.60;;;;;;;;;;5067933;28;20121;-79
2023/09/01 10:36:33;;;;;;;8.45;2.53;;;;;;;;;;5068817;28;20058;-78
2023/09/01 10:39:21;;;;;;;8.05;1.90;;;;;;;;;;5051965;28;20048;-78
2023/09/01 10:41:49;;;;;;;6.97;2.00;;;;;;;;;;5082879;28;20119;-79
2023/09/01 10:44:15;;;;;;;3.60;1.85;;;;;;;;;;5088977;28;20077;-78
2023/09/01 10:46:42;;;;;;;7.75;2.50;;;;;;;;;;5089107;28;20462;-78
2023/09/01 10:49:10;;;;;;;5.63;2.00;;;;;;;;;;5089938;28;20381;-79
2023/09/01 10:51:43;;;;;;;7.07;2.25;;;;;;;;;;5087823;28;20599;-78
2023/09/01 10:54:15;;;;;;;6.20;2.08;;;;;;;;;;5089924;28;20039;-79
2023/09/01 10:57:02;;;;;;;6.13;1.80;;;;;;;;;;5071513;28;20051;-78
2023/09/01 10:59:32;;;;;;;5.43;1.80;;;;;;;;;;5089314;28;20055;-78
2023/09/01 11:02:18;;;;;;;4.13;1.70;;;;;;;;;;5088593;28;20514;-78
2023/09/01 11:04:44;;;;;;;3.53;1.70;;;;;;;;;;5089226;28;20040;-78
2023/09/01 11:07:12;;;;;;;5.57;2.08;;;;;;;;;;5089462;28;20480;-78
2023/09/01 11:09:39;;;;;;;7.32;2.60;;;;;;;;;;5084047;28;20142;-78
2023/09/01 11:12:07;;;;;;;5.22;2.00;;;;;;;;;;5089505;28;20048;-77
2023/09/01 11:14:34;;;;;;;4.93;1.95;;;;;;;;;;5086390;28;20068;-79
2023/09/01 11:17:01;;;;;;;4.32;2.00;;;;;;;;;;5087649;28;20040;-78
2023/09/01 11:19:28;;;;;;;6.05;2.17;;;;;;;;;;5087565;28;20073;-78
2023/09/01 11:21:54;;;;;;;6.45;2.05;;;;;;;;;;5087117;28;20119;-78
2023/09/01 11:24:20;;;;;;;3.88;1.95;;;;;;;;;;5071827;28;20162;-79
2023/09/01 11:26:47;;;;;;;6.03;1.88;;;;;;;;;;5085190;28;20048;-78
2023/09/01 11:29:13;;;;;;;5.25;1.88;;;;;;;;;;5086779;28;20436;-79
2023/09/01 11:31:40;;;;;;;5.72;1.90;;;;;;;;;;5072709;28;20086;-78
2023/09/01 11:34:06;;;;;;;4.07;1.90;;;;;;;;;;5087632;28;20048;-78
2023/09/01 11:36:33;;;;;;;7.10;2.28;;;;;;;;;;5092180;28;20032;-78
2023/09/01 11:38:59;;;;;;;4.70;2.10;;;;;;;;;;5090908;28;20142;-78
2023/09/01 11:41:26;;;;;;;6.40;2.00;;;;;;;;;;5092438;28;20048;-78
2023/09/01 11:43:56;;;;;;;5.85;2.15;;;;;;;;;;5090689;28;20083;-78
2023/09/01 11:46:32;;;;;;;6.38;2.03;;;;;;;;;;5091415;28;20139;-78
2023/09/01 11:48:58;;;;;;;5.40;2.17;;;;;;;;;;5091022;28;20044;-80
2023/09/01 11:51:40;;;;;;;4.47;2.25;;;;;;;;;;5092070;28;20086;-79
2023/09/01 11:54:06;;;;;;;5.70;2.08;;;;;;;;;;5089839;28;20044;-79
2023/09/01 11:56:33;;;;;;;3.95;1.73;;;;;;;;;;5090414;28;20084;-79
2023/09/01 11:59:00;;;;;;;7.85;1.85;;;;;;;;;;5090481;28;20044;-79
2023/09/01 12:01:41;;;;;;;6.07;2.03;;;;;;;;;;5089861;28;20434;-79
2023/09/01 12:04:09;;;;;;;4.88;2.30;;;;;;;;;;5090276;28;20415;-80
2023/09/01 12:06:44;;;;;;;4.80;2.10;;;;;;;;;;5092624;28;20100;-80
2023/09/01 12:09:14;;;;;;;7.95;2.40;;;;;;;;;;5090803;28;20087;-79
2023/09/01 12:11:57;;;;;;;9.52;2.53;;;;;;;;;;5091678;28;20055;-79
2023/09/01 12:14:27;;;;;;;7.72;2.35;;;;;;;;;;5091153;28;20123;-78
2023/09/01 12:16:54;;;;;;;6.93;2.40;;;;;;;;;;5095680;28;20040;-78
2023/09/01 12:19:24;;;;;;;13.10;2.53;;;;;;;;;;5095547;28;20065;-78
2023/09/01 12:21:51;;;;;;;7.40;2.22;;;;;;;;;;5094463;28;20127;-78
2023/09/01 12:24:17;;;;;;;4.97;2.30;;;;;;;;;;5094970;28;20036;-78
2023/09/01 12:26:43;;;;;;;4.90;2.00;;;;;;;;;;5095365;28;20046;-78
2023/09/01 12:29:09;;;;;;;5.65;2.05;;;;;;;;;;5094951;28;20527;-79
2023/09/01 12:31:35;;;;;;;7.18;2.50;;;;;;;;;;5096347;28;20051;-80
2023/09/01 12:34:01;;;;;;;6.38;2.30;;;;;;;;;;5101560;28;20144;-78
2023/09/01 12:36:27;;;;;;;5.97;2.20;;;;;;;;;;5104955;28;20040;-78
2023/09/01 12:38:53;;;;;;;7.85;2.70;;;;;;;;;;5094922;28;20056;-80
2023/09/01 12:41:20;;;;;;;6.95;2.50;;;;;;;;;;5096401;28;20044;-80
2023/09/01 12:43:46;;;;;;;8.05;2.58;;;;;;;;;;5094944;28;20040;-81
2023/09/01 12:46:12;;;;;;;8.70;2.70;;;;;;;;;;5077110;28;20093;-79
2023/09/01 12:48:38;;;;;;;8.73;2.90;;;;;;;;;;5095699;28;20044;-80
2023/09/01 12:51:04;;;;;;;5.28;2.90;;;;;;;;;;5094583;28;20051;-78
2023/09/01 12:53:31;;;;;;;8.65;2.90;;;;;;;;;;5076976;28;20036;-80
2023/09/01 12:56:00;;;;;;;6.75;2.53;;;;;;;;;;5094953;28;20040;-80
2023/09/01 12:58:31;;;;;;;6.43;2.50;;;;;;;;;;5095595;28;20131;-79
2023/09/01 13:01:03;;;;;;;5.70;2.72;;;;;;;;;;5095273;28;20100;-80
2023/09/01 13:03:29;;;;;;;5.75;2.50;;;;;;;;;;5095247;28;20051;-80
2023/09/01 13:05:55;;;;;;;8.23;2.70;;;;;;;;;;5094215;28;20048;-81
2023/09/01 13:08:21;;;;;;;7.40;3.00;;;;;;;;;;5093874;28;20048;-80
2023/09/01 13:10:47;;;;;;;7.10;2.40;;;;;;;;;;5094550;28;20517;-79
2023/09/01 13:13:14;;;;;;;4.75;2.45;;;;;;;;;;5093001;28;20047;-80
2023/09/01 13:15:40;;;;;;;7.50;2.50;;;;;;;;;;5095377;28;20469;-79
2023/09/01 13:18:07;;;;;;;7.97;3.17;;;;;;;;;;5090540;28;20126;-81
2023/09/01 13:20:33;;;;;;;7.60;2.80;;;;;;;;;;5097325;28;20051;-80
2023/09/01 13:23:00;;;;;;;7.60;2.97;;;;;;;;;;5113852;28;20042;-80
2023/09/01 13:25:26;;;;;;;7.75;2.95;;;;;;;;;;5115289;28;20078;-80
2023/09/01 13:27:52;;;;;;;8.38;2.83;;;;;;;;;;5087980;28;20064;-80
2023/09/01 13:30:18;;;;;;;8.63;2.70;;;;;;;;;;5074905;28;20101;-80
2023/09/01 13:32:44;;;;;;;5.43;2.50;;;;;;;;;;5073726;28;20134;-81
2023/09/01 13:35:10;;;;;;;7.03;2.90;;;;;;;;;;5073662;28;20080;-80
2023/09/01 13:37:36;;;;;;;7.78;2.83;;;;;;;;;;5075101;28;20049;-82
2023/09/01 13:40:02;;;;;;;7.07;2.80;;;;;;;;;;5073491;28;20048;-81
2023/09/01 13:42:28;;;;;;;6.97;3.00;;;;;;;;;;5073187;28;20044;-81
2023/09/01 13:44:56;;;;;;;8.02;2.63;;;;;;;;;;5073235;28;20044;-81
2023/09/01 13:47:22;;;;;;;8.45;2.78;;;;;;;;;;5073713;28;20052;-80
2023/09/01 13:49:52;;;;;;;8.02;2.47;;;;;;;;;;5073041;28;20153;-80
2023/09/01 13:52:19;;;;;;;7.70;2.70;;;;;;;;;;5073148;28;20048;-81
2023/09/01 13:54:45;;;;;;;7.03;2.78;;;;;;;;;;5090449;28;20127;-81
2023/09/01 13:57:11;;;;;;;6.00;2.50;;;;;;;;;;5073156;28;20044;-81
2023/09/01 13:59:38;;;;;;;7.50;2.40;;;;;;;;;;5074396;28;20448;-81
2023/09/01 14:02:07;;;;;;;6.38;2.30;;;;;;;;;;5072454;28;20076;-82
2023/09/01 14:04:33;;;;;;;6.20;2.30;;;;;;;;;;5070774;28;20056;-82
2023/09/01 14:06:59;;;;;;;6.30;2.35;;;;;;;;;;5072372;28;20044;-81
2023/09/01 14:09:25;;;;;;;6.70;2.50;;;;;;;;;;5072497;28;20052;-82
2023/09/01 14:11:51;;;;;;;6.57;2.20;;;;;;;;;;5074795;28;20048;-81
2023/09/01 14:14:20;;;;;;;5.00;2.30;;;;;;;;;;5073202;28;20393;-81
2023/09/01 14:16:46;;;;;;;6.72;2.40;;;;;;;;;;5072823;28;20477;-81
2023/09/01 14:19:12;;;;;;;6.03;2.60;;;;;;;;;;5072743;28;20057;-81
2023/09/01 14:21:38;;;;;;;5.72;2.45;;;;;;;;;;5073385;28;20119;-81
2023/09/01 14:24:05;;;;;;;6.15;2.35;;;;;;;;;;5071485;28;20044;-81
2023/09/01 14:26:31;;;;;;;6.22;2.70;;;;;;;;;;5072774;28;20040;-81
2023/09/01 14:28:57;;;;;;;6.25;3.10;;;;;;;;;;5093167;28;20073;-81
2023/09/01 14:31:24;;;;;;;7.95;3.25;;;;;;;;;;5093608;28;20040;-80
2023/09/01 14:33:50;;;;;;;7.35;3.05;;;;;;;;;;5092871;28;20052;-80
2023/09/01 14:36:16;;;;;;;7.38;3.22;;;;;;;;;;5092686;28;20040;-80
2023/09/01 14:38:42;;;;;;;8.10;2.95;;;;;;;;;;5092084;28;20044;-82
2023/09/01 14:41:08;;;;;;;7.35;3.10;;;;;;;;;;5092260;28;20040;-81
2023/09/01 14:43:34;;;;;;;4.80;2.70;;;;;;;;;;5092252;28;20069;-81